createdAt,value
2022-12-16T00:02:22.663Z,15.55
2022-12-16T00:07:26.290Z,15.28
2022-12-16T00:12:29.329Z,15.28
2022-12-16T00:17:32.898Z,15.21
2022-12-16T00:22:36.163Z,15.10
2022-12-16T00:27:39.862Z,15.22
2022-12-16T00:32:43.762Z,15.29
2022-12-16T00:37:50.137Z,14.98
2022-12-16T00:42:55.964Z,15.21
2022-12-16T00:47:59.481Z,15.22
2022-12-16T00:53:04.900Z,14.95
2022-12-16T00:58:09.548Z,14.82
2022-12-16T01:03:16.812Z,14.72
2022-12-16T01:08:24.988Z,14.89
2022-12-16T01:13:28.337Z,15.05
2022-12-16T01:18:32.123Z,15.02
2022-12-16T01:23:35.927Z,14.92
2022-12-16T01:28:39.950Z,14.99
2022-12-16T01:33:44.005Z,14.84
2022-12-16T01:38:47.202Z,14.89
2022-12-16T01:43:50.275Z,14.89
2022-12-16T01:49:01.587Z,14.84
2022-12-16T01:54:12.357Z,14.94
2022-12-16T01:59:17.147Z,15.04
2022-12-16T02:04:20.470Z,15.00
2022-12-16T02:09:23.901Z,15.26
2022-12-16T02:15:00.184Z,15.10
2022-12-16T02:20:35.060Z,15.09
2022-12-16T02:25:59.627Z,15.30
2022-12-16T02:31:15.267Z,15.45
2022-12-16T02:36:24.663Z,15.27
2022-12-16T02:41:51.275Z,15.26
2022-12-16T02:46:56.027Z,15.62
2022-12-16T02:52:01.751Z,15.65
2022-12-16T02:57:42.975Z,15.50
2022-12-16T03:02:58.542Z,15.47
2022-12-16T03:08:10.074Z,15.50
2022-12-16T03:13:17.735Z,15.36
2022-12-16T03:18:22.701Z,15.47
2022-12-16T03:23:32.734Z,15.47
2022-12-16T03:28:54.487Z,15.54
2022-12-16T03:34:23.857Z,15.42
2022-12-16T03:39:27.814Z,15.47
2022-12-16T03:44:31.600Z,15.61
2022-12-16T03:49:35.479Z,15.62
2022-12-16T03:54:39.753Z,15.75
2022-12-16T03:59:43.175Z,15.91
2022-12-16T04:04:47.085Z,15.79
2022-12-16T04:09:52.088Z,15.77
2022-12-16T04:15:13.440Z,15.91
2022-12-16T04:20:37.171Z,16.05
2022-12-16T04:25:40.187Z,15.98
2022-12-16T04:30:44.076Z,16.02
2022-12-16T04:36:07.048Z,16.19
2022-12-16T04:41:29.662Z,16.50
2022-12-16T04:46:52.490Z,16.21
2022-12-16T04:52:14.588Z,16.08
2022-12-16T04:57:37.651Z,15.79
2022-12-16T05:02:59.800Z,15.86
2022-12-16T05:08:21.739Z,15.48
2022-12-16T05:13:44.030Z,15.28
2022-12-16T05:19:06.522Z,15.38
2022-12-16T05:24:28.750Z,15.19
2022-12-16T05:29:50.750Z,15.27
2022-12-16T05:35:13.099Z,15.28
2022-12-16T05:40:34.597Z,15.04
2022-12-16T05:45:56.652Z,15.08
2022-12-16T05:51:18.915Z,14.92
2022-12-16T05:56:41.666Z,14.76
2022-12-16T06:02:03.787Z,14.79
2022-12-16T06:07:26.055Z,14.79
2022-12-16T06:12:47.954Z,14.79
2022-12-16T06:18:11.208Z,14.66
2022-12-16T06:23:34.297Z,14.69
2022-12-16T06:28:56.279Z,14.77
2022-12-16T06:34:18.537Z,14.82
2022-12-16T06:39:41.177Z,14.89
2022-12-16T06:45:02.921Z,15.02
2022-12-16T06:50:26.206Z,15.34
2022-12-16T06:55:49.042Z,15.66
2022-12-16T07:01:11.406Z,15.52
2022-12-16T07:06:33.321Z,17.01
2022-12-16T07:11:55.500Z,19.16
2022-12-16T07:17:18.623Z,20.32
2022-12-16T07:22:40.936Z,21.25
2022-12-16T07:28:12.188Z,21.76
2022-12-16T07:33:37.666Z,22.08
2022-12-16T07:38:59.819Z,22.27
2022-12-16T07:44:21.292Z,23.01
2022-12-16T07:49:43.858Z,23.38
2022-12-16T07:55:06.595Z,24.11
2022-12-16T08:00:28.860Z,23.71
2022-12-16T08:05:51.561Z,23.46
2022-12-16T08:11:13.081Z,24.66
2022-12-16T08:16:35.314Z,24.65
2022-12-16T08:21:58.283Z,24.45
2022-12-16T08:27:20.445Z,25.29
2022-12-16T08:32:42.917Z,25.26
2022-12-16T08:38:13.552Z,25.89
2022-12-16T08:43:37.022Z,25.68
2022-12-16T08:48:59.998Z,26.39
2022-12-16T08:54:22.262Z,26.15
2022-12-16T08:59:44.643Z,26.78
2022-12-16T09:05:07.043Z,27.05
2022-12-16T09:10:28.771Z,27.58
2022-12-16T09:15:51.956Z,28.13
2022-12-16T09:21:13.808Z,28.36
2022-12-16T09:26:35.847Z,28.10
2022-12-16T09:31:58.496Z,27.92
2022-12-16T09:37:20.367Z,28.00
2022-12-16T09:43:09.101Z,28.10
2022-12-16T09:49:01.451Z,28.21
2022-12-16T09:54:24.574Z,27.88
2022-12-16T10:00:00.171Z,28.27
2022-12-16T10:05:22.504Z,29.07
2022-12-16T10:11:22.310Z,28.76
2022-12-16T10:16:49.549Z,27.74
2022-12-16T10:22:22.916Z,28.22
2022-12-16T10:28:06.939Z,28.51
2022-12-16T10:33:33.201Z,27.88
2022-12-16T10:39:01.464Z,27.51
2022-12-16T10:44:32.536Z,27.27
2022-12-16T10:49:56.578Z,27.02
2022-12-16T10:55:41.193Z,25.76
2022-12-16T11:01:09.802Z,25.15
2022-12-16T11:06:55.791Z,24.93
2022-12-16T11:12:41.563Z,24.67
2022-12-16T11:18:22.031Z,25.00
2022-12-16T11:23:46.279Z,24.62
2022-12-16T11:29:21.802Z,24.88
2022-12-16T11:34:44.081Z,24.98
2022-12-16T11:40:07.332Z,24.69
2022-12-16T11:45:35.194Z,24.85
2022-12-16T11:51:07.321Z,24.73
2022-12-16T11:56:38.278Z,25.05
2022-12-16T12:02:18.696Z,24.95
2022-12-16T12:07:55.392Z,25.14
2022-12-16T12:13:26.369Z,25.34
2022-12-16T12:19:04.280Z,25.72
2022-12-16T12:24:37.768Z,25.24
2022-12-16T12:30:21.207Z,25.57
2022-12-16T12:36:37.946Z,25.85
2022-12-16T12:42:12.622Z,25.58
2022-12-16T12:47:37.170Z,26.28
2022-12-16T12:53:12.464Z,26.11
2022-12-16T12:58:36.545Z,26.13
2022-12-16T13:04:21.072Z,26.44
2022-12-16T13:09:51.408Z,26.77
2022-12-16T13:15:15.498Z,26.33
2022-12-16T13:20:53.112Z,26.32
2022-12-16T13:26:24.085Z,26.43
2022-12-16T13:31:47.734Z,26.77
2022-12-16T13:37:20.831Z,26.37
2022-12-16T13:42:50.902Z,26.41
2022-12-16T13:48:13.191Z,26.37
2022-12-16T13:53:36.994Z,25.96
2022-12-16T13:59:10.210Z,26.54
2022-12-16T14:04:44.252Z,26.14
2022-12-16T14:10:08.082Z,25.48
2022-12-16T14:15:45.172Z,25.02
2022-12-16T14:21:18.328Z,22.87
2022-12-16T14:26:41.241Z,22.53
2022-12-16T14:32:04.476Z,21.82
2022-12-16T14:37:31.462Z,21.01
2022-12-16T14:42:53.427Z,21.06
2022-12-16T14:48:16.166Z,20.90
2022-12-16T14:53:41.146Z,20.73
2022-12-16T14:59:03.435Z,20.38
2022-12-16T15:04:35.554Z,20.00
2022-12-16T15:10:03.270Z,20.05
2022-12-16T15:15:29.069Z,19.42
2022-12-16T15:20:53.963Z,19.36
2022-12-16T15:26:17.134Z,19.02
2022-12-16T15:31:56.824Z,18.54
2022-12-16T15:37:22.016Z,18.05
2022-12-16T15:42:47.796Z,17.75
2022-12-16T15:48:11.161Z,17.45
2022-12-16T15:53:55.737Z,17.50
2022-12-16T15:59:51.471Z,17.27
2022-12-16T16:05:14.131Z,16.90
2022-12-16T16:10:37.740Z,16.62
2022-12-16T16:15:59.705Z,16.33
2022-12-16T16:21:21.178Z,16.16
2022-12-16T16:27:03.657Z,16.07
2022-12-16T16:32:27.996Z,16.21
2022-12-16T16:37:50.641Z,16.06
2022-12-16T16:43:13.352Z,15.98
2022-12-16T16:48:37.766Z,15.93
2022-12-16T16:53:59.811Z,15.92
2022-12-16T16:59:21.539Z,15.84
2022-12-16T17:04:44.178Z,15.75
2022-12-16T17:10:06.123Z,15.95
2022-12-16T17:15:43.631Z,15.86
2022-12-16T17:21:05.867Z,15.97
2022-12-16T17:26:29.919Z,16.24
2022-12-16T17:31:51.728Z,16.05
2022-12-16T17:37:14.595Z,16.20
2022-12-16T17:42:37.290Z,16.41
2022-12-16T17:48:01.268Z,16.64
2022-12-16T17:53:24.425Z,16.96
2022-12-16T17:58:51.454Z,16.96
2022-12-16T18:04:13.997Z,17.09
2022-12-16T18:09:36.350Z,17.19
2022-12-16T18:14:58.394Z,17.41
2022-12-16T18:20:24.931Z,17.70
2022-12-16T18:25:47.127Z,17.68
2022-12-16T18:31:09.846Z,17.45
2022-12-16T18:36:32.184Z,17.02
2022-12-16T18:42:00.569Z,16.67
2022-12-16T18:47:22.956Z,16.36
2022-12-16T18:52:45.523Z,16.49
2022-12-16T18:58:21.074Z,16.59
2022-12-16T19:03:51.942Z,16.81
2022-12-16T19:09:14.644Z,16.74
2022-12-16T19:14:37.288Z,16.46
2022-12-16T19:19:59.387Z,16.03
2022-12-16T19:25:21.260Z,16.23
2022-12-16T19:30:43.829Z,16.43
2022-12-16T19:36:05.918Z,16.40
2022-12-16T19:41:36.228Z,16.36
2022-12-16T19:46:59.000Z,16.42
2022-12-16T19:52:21.377Z,16.25
2022-12-16T19:57:43.036Z,16.11
2022-12-16T20:03:05.228Z,15.98
2022-12-16T20:08:27.006Z,16.38
2022-12-16T20:13:49.102Z,16.29
2022-12-16T20:19:11.525Z,16.59
2022-12-16T20:24:33.426Z,16.39
2022-12-16T20:30:04.038Z,16.42
2022-12-16T20:35:26.170Z,16.41
2022-12-16T20:40:47.982Z,16.24
2022-12-16T20:46:14.469Z,16.12
2022-12-16T20:51:36.158Z,16.05
2022-12-16T20:56:59.119Z,16.24
2022-12-16T21:02:23.767Z,16.21
2022-12-16T21:07:47.030Z,16.12
2022-12-16T21:13:09.484Z,16.04
2022-12-16T21:18:53.561Z,16.01
2022-12-16T21:24:15.172Z,16.13
2022-12-16T21:29:37.664Z,15.65
2022-12-16T21:34:59.963Z,15.74
2022-12-16T21:40:23.189Z,15.55
2022-12-16T21:45:44.861Z,15.64
2022-12-16T21:51:12.344Z,15.64
2022-12-16T21:56:34.869Z,15.64
2022-12-16T22:01:57.443Z,15.65
2022-12-16T22:07:19.194Z,15.77
2022-12-16T22:12:42.131Z,15.71
2022-12-16T22:18:04.983Z,15.99
2022-12-16T22:23:28.436Z,15.90
2022-12-16T22:28:50.755Z,16.12
2022-12-16T22:34:12.864Z,16.21
2022-12-16T22:39:38.807Z,15.13
2022-12-16T22:45:04.092Z,13.62
2022-12-16T22:50:26.629Z,12.84
2022-12-16T22:55:48.423Z,12.36
2022-12-16T23:01:10.490Z,11.98
2022-12-16T23:06:32.919Z,11.82
2022-12-16T23:12:01.113Z,11.73
2022-12-16T23:17:23.898Z,11.78
2022-12-16T23:22:45.939Z,11.75
2022-12-16T23:28:08.866Z,11.58
2022-12-16T23:33:31.930Z,11.42
2022-12-16T23:38:55.005Z,11.49
2022-12-16T23:44:18.607Z,11.19
2022-12-16T23:49:42.374Z,10.95
2022-12-16T23:55:04.605Z,10.83
